sensor_id;sensor_type;location;lat;lon;timestamp;temperature;humidity
10437;DHT22;5265;50.006;9.202;2023-07-09T00:01:39;19.00;99.90
10437;DHT22;5265;50.006;9.202;2023-07-09T00:04:07;18.70;99.90
10437;DHT22;5265;50.006;9.202;2023-07-09T00:06:34;18.60;99.90
10437;DHT22;5265;50.006;9.202;2023-07-09T00:09:01;18.40;99.90
10437;DHT22;5265;50.006;9.202;2023-07-09T00:11:30;18.60;99.90
10437;DHT22;5265;50.006;9.202;2023-07-09T00:13:57;18.30;99.90
10437;DHT22;5265;50.006;9.202;2023-07-09T00:16:25;18.40;99.90
10437;DHT22;5265;50.006;9.202;2023-07-09T00:18:53;18.50;99.90
10437;DHT22;5265;50.006;9.202;2023-07-09T00:21:21;18.40;99.90
10437;DHT22;5265;50.006;9.202;2023-07-09T00:23:48;18.60;99.90
10437;DHT22;5265;50.006;9.202;2023-07-09T00:26:16;18.40;99.90
10437;DHT22;5265;50.006;9.202;2023-07-09T00:28:43;18.40;99.90
10437;DHT22;5265;50.006;9.202;2023-07-09T00:31:11;18.50;99.90
10437;DHT22;5265;50.006;9.202;2023-07-09T00:36:11;18.50;99.90
10437;DHT22;5265;50.006;9.202;2023-07-09T00:38:40;18.50;99.90
10437;DHT22;5265;50.006;9.202;2023-07-09T00:41:15;18.40;99.90
10437;DHT22;5265;50.006;9.202;2023-07-09T00:43:43;18.30;99.90
10437;DHT22;5265;50.006;9.202;2023-07-09T00:46:14;18.30;99.90
10437;DHT22;5265;50.006;9.202;2023-07-09T00:48:42;18.10;99.90
10437;DHT22;5265;50.006;9.202;2023-07-09T00:51:11;18.10;99.90
10437;DHT22;5265;50.006;9.202;2023-07-09T00:53:41;18.10;99.90
10437;DHT22;5265;50.006;9.202;2023-07-09T00:56:12;18.00;99.90
10437;DHT22;5265;50.006;9.202;2023-07-09T00:58:41;18.20;99.90
10437;DHT22;5265;50.006;9.202;2023-07-09T01:01:10;17.90;99.90
10437;DHT22;5265;50.006;9.202;2023-07-09T01:03:39;18.00;99.90
10437;DHT22;5265;50.006;9.202;2023-07-09T01:06:08;17.90;99.90
10437;DHT22;5265;50.006;9.202;2023-07-09T01:08:37;17.90;99.90
10437;DHT22;5265;50.006;9.202;2023-07-09T01:11:13;17.80;99.90
10437;DHT22;5265;50.006;9.202;2023-07-09T01:13:42;17.60;99.90
10437;DHT22;5265;50.006;9.202;2023-07-09T01:16:11;17.90;99.90
10437;DHT22;5265;50.006;9.202;2023-07-09T01:18:38;17.60;99.90
10437;DHT22;5265;50.006;9.202;2023-07-09T01:21:08;17.50;99.90
10437;DHT22;5265;50.006;9.202;2023-07-09T01:23:41;17.50;99.90
10437;DHT22;5265;50.006;9.202;2023-07-09T01:26:09;17.50;99.90
10437;DHT22;5265;50.006;9.202;2023-07-09T01:28:37;17.70;99.90
10437;DHT22;5265;50.006;9.202;2023-07-09T01:31:05;17.50;99.90
10437;DHT22;5265;50.006;9.202;2023-07-09T01:33:32;17.80;99.90
10437;DHT22;5265;50.006;9.202;2023-07-09T01:35:59;17.40;99.90
10437;DHT22;5265;50.006;9.202;2023-07-09T01:38:28;17.40;99.90
10437;DHT22;5265;50.006;9.202;2023-07-09T01:40:56;17.40;99.90
10437;DHT22;5265;50.006;9.202;2023-07-09T01:43:23;17.60;99.90
10437;DHT22;5265;50.006;9.202;2023-07-09T01:45:51;17.30;99.90
10437;DHT22;5265;50.006;9.202;2023-07-09T01:48:19;17.20;99.90
10437;DHT22;5265;50.006;9.202;2023-07-09T01:50:46;17.10;99.90
10437;DHT22;5265;50.006;9.202;2023-07-09T01:53:16;17.10;99.90
10437;DHT22;5265;50.006;9.202;2023-07-09T01:55:46;17.10;99.90
10437;DHT22;5265;50.006;9.202;2023-07-09T01:58:13;17.00;99.90
10437;DHT22;5265;50.006;9.202;2023-07-09T02:00:42;16.90;99.90
10437;DHT22;5265;50.006;9.202;2023-07-09T02:03:11;17.10;99.90
10437;DHT22;5265;50.006;9.202;2023-07-09T02:05:40;17.10;99.90
10437;DHT22;5265;50.006;9.202;2023-07-09T02:08:07;16.80;99.90
10437;DHT22;5265;50.006;9.202;2023-07-09T02:10:34;16.80;99.90
10437;DHT22;5265;50.006;9.202;2023-07-09T02:13:03;17.00;99.90
10437;DHT22;5265;50.006;9.202;2023-07-09T02:15:30;16.80;99.90
10437;DHT22;5265;50.006;9.202;2023-07-09T02:17:57;17.10;99.90
10437;DHT22;5265;50.006;9.202;2023-07-09T02:20:28;17.00;99.90
10437;DHT22;5265;50.006;9.202;2023-07-09T02:22:55;17.10;99.90
10437;DHT22;5265;50.006;9.202;2023-07-09T02:25:22;17.00;99.90
10437;DHT22;5265;50.006;9.202;2023-07-09T02:27:49;17.00;99.90
10437;DHT22;5265;50.006;9.202;2023-07-09T02:30:18;17.00;99.90
10437;DHT22;5265;50.006;9.202;2023-07-09T02:32:46;17.00;99.90
10437;DHT22;5265;50.006;9.202;2023-07-09T02:35:16;17.10;99.90
10437;DHT22;5265;50.006;9.202;2023-07-09T02:37:43;17.00;99.90
10437;DHT22;5265;50.006;9.202;2023-07-09T02:40:11;16.90;99.90
10437;DHT22;5265;50.006;9.202;2023-07-09T02:42:38;16.70;99.90
10437;DHT22;5265;50.006;9.202;2023-07-09T02:45:06;16.50;99.90
10437;DHT22;5265;50.006;9.202;2023-07-09T02:47:34;16.80;99.90
10437;DHT22;5265;50.006;9.202;2023-07-09T02:50:02;16.70;99.90
10437;DHT22;5265;50.006;9.202;2023-07-09T02:52:30;16.80;99.90
10437;DHT22;5265;50.006;9.202;2023-07-09T02:54:57;16.80;99.90
10437;DHT22;5265;50.006;9.202;2023-07-09T02:57:24;16.80;99.90
10437;DHT22;5265;50.006;9.202;2023-07-09T02:59:51;16.80;99.90
10437;DHT22;5265;50.006;9.202;2023-07-09T03:02:18;16.80;99.90
10437;DHT22;5265;50.006;9.202;2023-07-09T03:04:47;16.80;99.90
10437;DHT22;5265;50.006;9.202;2023-07-09T03:07:14;16.70;99.90
10437;DHT22;5265;50.006;9.202;2023-07-09T03:09:42;16.60;99.90
10437;DHT22;5265;50.006;9.202;2023-07-09T03:12:09;16.60;99.90
10437;DHT22;5265;50.006;9.202;2023-07-09T03:14:36;16.70;99.90
10437;DHT22;5265;50.006;9.202;2023-07-09T03:17:03;16.80;99.90
